sensor_id;sensor_type;location;lat;lon;timestamp;P1;durP1;ratioP1;P2;durP2;ratioP2
27383;SDS011;14851;51.166;4.760;2024-02-21T00:00:21;22.73;;;7.43;;
27383;SDS011;14851;51.166;4.760;2024-02-21T00:02:47;20.92;;;8.00;;
27383;SDS011;14851;51.166;4.760;2024-02-21T00:05:15;19.02;;;7.35;;
27383;SDS011;14851;51.166;4.760;2024-02-21T00:07:42;22.73;;;7.78;;
27383;SDS011;14851;51.166;4.760;2024-02-21T00:10:10;17.73;;;6.80;;
27383;SDS011;14851;51.166;4.760;2024-02-21T00:12:37;23.77;;;7.60;;
27383;SDS011;14851;51.166;4.760;2024-02-21T00:15:03;17.63;;;7.10;;
27383;SDS011;14851;51.166;4.760;2024-02-21T00:17:30;18.42;;;7.40;;
27383;SDS011;14851;51.166;4.760;2024-02-21T00:19:56;19.77;;;7.95;;
27383;SDS011;14851;51.166;4.760;2024-02-21T00:22:22;14.57;;;6.50;;
27383;SDS011;14851;51.166;4.760;2024-02-21T00:24:48;19.27;;;7.13;;
27383;SDS011;14851;51.166;4.760;2024-02-21T00:27:14;22.02;;;6.75;;
27383;SDS011;14851;51.166;4.760;2024-02-21T00:29:41;20.77;;;7.28;;
27383;SDS011;14851;51.166;4.760;2024-02-21T00:32:06;18.05;;;6.93;;
27383;SDS011;14851;51.166;4.760;2024-02-21T00:34:33;18.63;;;6.65;;
27383;SDS011;14851;51.166;4.760;2024-02-21T00:37:00;18.20;;;6.80;;
27383;SDS011;14851;51.166;4.760;2024-02-21T00:39:27;21.73;;;6.97;;
27383;SDS011;14851;51.166;4.760;2024-02-21T00:41:53;18.58;;;6.72;;
27383;SDS011;14851;51.166;4.760;2024-02-21T00:44:19;15.93;;;5.70;;
27383;SDS011;14851;51.166;4.760;2024-02-21T00:46:46;17.35;;;6.70;;
27383;SDS011;14851;51.166;4.760;2024-02-21T00:49:12;18.90;;;7.05;;
27383;SDS011;14851;51.166;4.760;2024-02-21T00:51:38;18.50;;;5.95;;
27383;SDS011;14851;51.166;4.760;2024-02-21T00:54:05;12.88;;;5.82;;
27383;SDS011;14851;51.166;4.760;2024-02-21T00:56:31;22.80;;;6.97;;
27383;SDS011;14851;51.166;4.760;2024-02-21T00:59:00;14.52;;;5.75;;
27383;SDS011;14851;51.166;4.760;2024-02-21T01:01:26;18.25;;;6.60;;
27383;SDS011;14851;51.166;4.760;2024-02-21T01:03:52;18.45;;;6.30;;
27383;SDS011;14851;51.166;4.760;2024-02-21T01:06:19;13.10;;;6.75;;
27383;SDS011;14851;51.166;4.760;2024-02-21T01:08:46;19.98;;;6.75;;
27383;SDS011;14851;51.166;4.760;2024-02-21T01:11:16;15.48;;;6.32;;
27383;SDS011;14851;51.166;4.760;2024-02-21T01:13:43;18.48;;;6.45;;
27383;SDS011;14851;51.166;4.760;2024-02-21T01:16:10;17.98;;;6.63;;
27383;SDS011;14851;51.166;4.760;2024-02-21T01:18:39;15.90;;;6.15;;
27383;SDS011;14851;51.166;4.760;2024-02-21T01:21:06;14.63;;;6.22;;
27383;SDS011;14851;51.166;4.760;2024-02-21T01:23:36;15.27;;;6.30;;
27383;SDS011;14851;51.166;4.760;2024-02-21T01:26:03;14.85;;;6.25;;
27383;SDS011;14851;51.166;4.760;2024-02-21T01:28:30;17.08;;;6.63;;
27383;SDS011;14851;51.166;4.760;2024-02-21T01:30:56;12.95;;;6.18;;
27383;SDS011;14851;51.166;4.760;2024-02-21T01:33:23;15.05;;;5.80;;
27383;SDS011;14851;51.166;4.760;2024-02-21T01:35:49;17.48;;;7.50;;
27383;SDS011;14851;51.166;4.760;2024-02-21T01:38:15;18.33;;;5.88;;
27383;SDS011;14851;51.166;4.760;2024-02-21T01:40:41;14.43;;;6.30;;
27383;SDS011;14851;51.166;4.760;2024-02-21T01:43:17;13.52;;;6.10;;
27383;SDS011;14851;51.166;4.760;2024-02-21T01:45:46;16.52;;;5.95;;
27383;SDS011;14851;51.166;4.760;2024-02-21T01:48:18;13.90;;;6.05;;
27383;SDS011;14851;51.166;4.760;2024-02-21T01:50:45;13.75;;;5.88;;
27383;SDS011;14851;51.166;4.760;2024-02-21T01:53:13;11.38;;;5.30;;
27383;SDS011;14851;51.166;4.760;2024-02-21T01:55:45;13.48;;;5.05;;
27383;SDS011;14851;51.166;4.760;2024-02-21T01:58:15;16.15;;;5.93;;
27383;SDS011;14851;51.166;4.760;2024-02-21T02:00:43;16.00;;;6.25;;
27383;SDS011;14851;51.166;4.760;2024-02-21T02:03:10;14.13;;;5.88;;
27383;SDS011;14851;51.166;4.760;2024-02-21T02:05:44;13.27;;;5.82;;
27383;SDS011;14851;51.166;4.760;2024-02-21T02:08:19;13.13;;;5.25;;
27383;SDS011;14851;51.166;4.760;2024-02-21T02:13:13;15.25;;;5.68;;
27383;SDS011;14851;51.166;4.760;2024-02-21T02:15:44;14.05;;;6.07;;
27383;SDS011;14851;51.166;4.760;2024-02-21T02:18:12;13.75;;;5.72;;
27383;SDS011;14851;51.166;4.760;2024-02-21T02:20:39;15.35;;;6.05;;
27383;SDS011;14851;51.166;4.760;2024-02-21T02:25:43;19.38;;;6.57;;
27383;SDS011;14851;51.166;4.760;2024-02-21T02:28:14;13.45;;;6.53;;
27383;SDS011;14851;51.166;4.760;2024-02-21T02:30:44;12.00;;;5.90;;
27383;SDS011;14851;51.166;4.760;2024-02-21T02:33:10;14.90;;;7.22;;
27383;SDS011;14851;51.166;4.760;2024-02-21T02:35:36;14.93;;;6.55;;
27383;SDS011;14851;51.166;4.760;2024-02-21T02:38:02;13.50;;;7.15;;
27383;SDS011;14851;51.166;4.760;2024-02-21T02:40:30;13.02;;;6.85;;
27383;SDS011;14851;51.166;4.760;2024-02-21T02:42:56;15.63;;;6.50;;
27383;SDS011;14851;51.166;4.760;2024-02-21T02:45:25;13.73;;;7.55;;
27383;SDS011;14851;51.166;4.760;2024-02-21T02:47:52;19.05;;;7.10;;
27383;SDS011;14851;51.166;4.760;2024-02-21T02:52:51;20.05;;;7.13;;
27383;SDS011;14851;51.166;4.760;2024-02-21T02:55:18;14.07;;;6.68;;
27383;SDS011;14851;51.166;4.760;2024-02-21T02:57:46;17.25;;;6.63;;
27383;SDS011;14851;51.166;4.760;2024-02-21T03:00:13;14.27;;;7.10;;
27383;SDS011;14851;51.166;4.760;2024-02-21T03:02:41;16.52;;;6.97;;
27383;SDS011;14851;51.166;4.760;2024-02-21T03:05:14;17.40;;;6.47;;
27383;SDS011;14851;51.166;4.760;2024-02-21T03:07:44;18.25;;;6.88;;
27383;SDS011;14851;51.166;4.760;2024-02-21T03:10:11;15.23;;;7.43;;
27383;SDS011;14851;51.166;4.760;2024-02-21T03:12:37;14.20;;;6.85;;
27383;SDS011;14851;51.166;4.760;2024-02-21T03:15:04;18.38;;;7.85;;
27383;SDS011;14851;51.166;4.760;2024-02-21T03:17:33;15.80;;;7.07;;
27383;SDS011;14851;51.166;4.760;2024-02-21T03:20:03;17.50;;;7.78;;
27383;SDS011;14851;51.166;4.760;2024-02-21T03:22:31;19.13;;;7.70;;
27383;SDS011;14851;51.166;4.760;2024-02-21T03:25:03;13.75;;;7.00;;
27383;SDS011;14851;51.166;4.760;2024-02-21T03:27:29;16.10;;;6.63;;
27383;SDS011;14851;51.166;4.760;2024-02-21T03:29:55;14.75;;;7.13;;
27383;SDS011;14851;51.166;4.760;2024-02-21T03:32:21;16.95;;;7.55;;
27383;SDS011;14851;51.166;4.760;2024-02-21T03:34:47;18.58;;;8.52;;
27383;SDS011;14851;51.166;4.760;2024-02-21T03:37:14;21.02;;;8.35;;
27383;SDS011;14851;51.166;4.760;2024-02-21T03:39:41;19.85;;;7.13;;
27383;SDS011;14851;51.166;4.760;2024-02-21T03:42:07;14.73;;;7.70;;
27383;SDS011;14851;51.166;4.760;2024-02-21T03:44:33;16.02;;;8.30;;
27383;SDS011;14851;51.166;4.760;2024-02-21T03:46:59;17.13;;;8.45;;
27383;SDS011;14851;51.166;4.760;2024-02-21T03:49:26;18.48;;;8.55;;
27383;SDS011;14851;51.166;4.760;2024-02-21T03:51:54;22.70;;;8.93;;
27383;SDS011;14851;51.166;4.760;2024-02-21T03:54:21;17.38;;;8.20;;
27383;SDS011;14851;51.166;4.760;2024-02-21T03:56:47;20.50;;;9.30;;
27383;SDS011;14851;51.166;4.760;2024-02-21T03:59:14;20.20;;;8.73;;
27383;SDS011;14851;51.166;4.760;2024-02-21T04:01:40;18.40;;;8.60;;
27383;SDS011;14851;51.166;4.760;2024-02-21T04:04:07;19.30;;;8.25;;
27383;SDS011;14851;51.166;4.760;2024-02-21T04:06:33;16.80;;;8.00;;
27383;SDS011;14851;51.166;4.760;2024-02-21T04:09:00;18.65;;;8.38;;
27383;SDS011;14851;51.166;4.760;2024-02-21T04:11:26;17.42;;;7.45;;
27383;SDS011;14851;51.166;4.760;2024-02-21T04:13:52;20.60;;;8.30;;
27383;SDS011;14851;51.166;4.760;2024-02-21T04:16:18;18.55;;;8.32;;
27383;SDS011;14851;51.166;4.760;2024-02-21T04:18:45;14.38;;;7.30;;
27383;SDS011;14851;51.166;4.760;2024-02-21T04:21:14;14.13;;;7.68;;
27383;SDS011;14851;51.166;4.760;2024-02-21T04:23:42;17.25;;;7.22;;
27383;SDS011;14851;51.166;4.760;2024-02-21T04:26:08;16.95;;;7.95;;
27383;SDS011;14851;51.166;4.760;2024-02-21T04:28:36;13.40;;;7.38;;
27383;SDS011;14851;51.166;4.760;2024-02-21T04:31:05;14.02;;;6.93;;
27383;SDS011;14851;51.166;4.760;2024-02-21T04:33:31;14.55;;;6.93;;
27383;SDS011;14851;51.166;4.760;2024-02-21T04:35:57;12.90;;;6.82;;
27383;SDS011;14851;51.166;4.760;2024-02-21T04:38:25;14.27;;;7.28;;
27383;SDS011;14851;51.166;4.760;2024-02-21T04:40:51;20.48;;;10.07;;
27383;SDS011;14851;51.166;4.760;2024-02-21T04:43:17;14.75;;;7.78;;
27383;SDS011;14851;51.166;4.760;2024-02-21T04:45:43;14.57;;;6.80;;
27383;SDS011;14851;51.166;4.760;2024-02-21T04:48:12;16.77;;;7.60;;
27383;SDS011;14851;51.166;4.760;2024-02-21T04:50:38;15.68;;;7.35;;
27383;SDS011;14851;51.166;4.760;2024-02-21T04:53:08;13.85;;;7.18;;
27383;SDS011;14851;51.166;4.760;2024-02-21T04:55:34;14.65;;;6.75;;
27383;SDS011;14851;51.166;4.760;2024-02-21T04:58:03;14.40;;;7.15;;
27383;SDS011;14851;51.166;4.760;2024-02-21T05:00:29;11.90;;;5.90;;
27383;SDS011;14851;51.166;4.760;2024-02-21T05:02:55;12.38;;;6.75;;
27383;SDS011;14851;51.166;4.760;2024-02-21T05:05:22;14.68;;;6.65;;
27383;SDS011;14851;51.166;4.760;2024-02-21T05:07:48;13.95;;;6.57;;
27383;SDS011;14851;51.166;4.760;2024-02-21T05:10:14;18.65;;;7.35;;
27383;SDS011;14851;51.166;4.760;2024-02-21T05:12:40;15.32;;;7.30;;
27383;SDS011;14851;51.166;4.760;2024-02-21T05:15:06;19.77;;;6.53;;
27383;SDS011;14851;51.166;4.760;2024-02-21T05:17:32;17.23;;;8.20;;
27383;SDS011;14851;51.166;4.760;2024-02-21T05:19:58;13.27;;;7.32;;
27383;SDS011;14851;51.166;4.760;2024-02-21T05:22:24;13.60;;;6.57;;
27383;SDS011;14851;51.166;4.760;2024-02-21T05:24:50;12.70;;;8.32;;
27383;SDS011;14851;51.166;4.760;2024-02-21T05:27:16;18.60;;;7.97;;
27383;SDS011;14851;51.166;4.760;2024-02-21T05:29:42;15.65;;;8.13;;
27383;SDS011;14851;51.166;4.760;2024-02-21T05:32:09;19.98;;;9.50;;
27383;SDS011;14851;51.166;4.760;2024-02-21T05:34:35;19.50;;;9.75;;
27383;SDS011;14851;51.166;4.760;2024-02-21T05:37:01;15.27;;;8.00;;
27383;SDS011;14851;51.166;4.760;2024-02-21T05:39:28;17.88;;;8.85;;
27383;SDS011;14851;51.166;4.760;2024-02-21T05:41:55;17.50;;;9.00;;
27383;SDS011;14851;51.166;4.760;2024-02-21T05:44:21;15.98;;;8.35;;
27383;SDS011;14851;51.166;4.760;2024-02-21T05:46:47;21.60;;;9.88;;
27383;SDS011;14851;51.166;4.760;2024-02-21T05:49:14;15.75;;;8.45;;
27383;SDS011;14851;51.166;4.760;2024-02-21T05:51:40;15.88;;;8.05;;
27383;SDS011;14851;51.166;4.760;2024-02-21T05:54:08;13.60;;;7.97;;
27383;SDS011;14851;51.166;4.760;2024-02-21T05:56:34;19.08;;;10.02;;
27383;SDS011;14851;51.166;4.760;2024-02-21T05:59:01;15.93;;;9.32;;
27383;SDS011;14851;51.166;4.760;2024-02-21T06:01:28;17.77;;;8.68;;
27383;SDS011;14851;51.166;4.760;2024-02-21T06:03:54;16.33;;;9.02;;
27383;SDS011;14851;51.166;4.760;2024-02-21T06:06:20;15.95;;;8.65;;
27383;SDS011;14851;51.166;4.760;2024-02-21T06:08:47;15.18;;;8.80;;
27383;SDS011;14851;51.166;4.760;2024-02-21T06:11:13;13.48;;;8.80;;
27383;SDS011;14851;51.166;4.760;2024-02-21T06:13:40;15.80;;;8.60;;
27383;SDS011;14851;51.166;4.760;2024-02-21T06:16:06;19.42;;;9.38;;
27383;SDS011;14851;51.166;4.760;2024-02-21T06:18:34;15.80;;;8.77;;
27383;SDS011;14851;51.166;4.760;2024-02-21T06:21:02;16.63;;;8.10;;
27383;SDS011;14851;51.166;4.760;2024-02-21T06:23:28;19.52;;;8.95;;
27383;SDS011;14851;51.166;4.760;2024-02-21T06:25:56;15.77;;;9.13;;
27383;SDS011;14851;51.166;4.760;2024-02-21T06:28:22;19.60;;;8.07;;
27383;SDS011;14851;51.166;4.760;2024-02-21T06:30:48;16.35;;;8.95;;
27383;SDS011;14851;51.166;4.760;2024-02-21T06:33:15;19.08;;;9.45;;
27383;SDS011;14851;51.166;4.760;2024-02-21T06:35:42;18.80;;;9.18;;
27383;SDS011;14851;51.166;4.760;2024-02-21T06:38:10;16.92;;;8.68;;
27383;SDS011;14851;51.166;4.760;2024-02-21T06:40:37;14.88;;;8.70;;
27383;SDS011;14851;51.166;4.760;2024-02-21T06:43:07;15.10;;;7.90;;
27383;SDS011;14851;51.166;4.760;2024-02-21T06:45:33;12.23;;;7.72;;
27383;SDS011;14851;51.166;4.760;2024-02-21T06:47:59;15.85;;;8.55;;
27383;SDS011;14851;51.166;4.760;2024-02-21T06:50:26;14.82;;;8.18;;
27383;SDS011;14851;51.166;4.760;2024-02-21T06:52:53;14.40;;;8.95;;
27383;SDS011;14851;51.166;4.760;2024-02-21T06:55:18;16.23;;;8.00;;
27383;SDS011;14851;51.166;4.760;2024-02-21T06:57:45;13.10;;;8.23;;
27383;SDS011;14851;51.166;4.760;2024-02-21T07:00:11;14.00;;;7.57;;
27383;SDS011;14851;51.166;4.760;2024-02-21T07:02:37;14.55;;;8.15;;
27383;SDS011;14851;51.166;4.760;2024-02-21T07:05:04;14.77;;;7.40;;
27383;SDS011;14851;51.166;4.760;2024-02-21T07:07:30;15.48;;;6.68;;
27383;SDS011;14851;51.166;4.760;2024-02-21T07:09:56;10.68;;;6.68;;
27383;SDS011;14851;51.166;4.760;2024-02-21T07:12:22;11.27;;;6.60;;
27383;SDS011;14851;51.166;4.760;2024-02-21T07:14:48;10.18;;;6.55;;
27383;SDS011;14851;51.166;4.760;2024-02-21T07:17:17;12.68;;;6.85;;
27383;SDS011;14851;51.166;4.760;2024-02-21T07:19:43;18.48;;;6.10;;
27383;SDS011;14851;51.166;4.760;2024-02-21T07:22:09;10.68;;;5.97;;
27383;SDS011;14851;51.166;4.760;2024-02-21T07:24:36;11.70;;;5.93;;
27383;SDS011;14851;51.166;4.760;2024-02-21T07:27:02;9.55;;;5.63;;
27383;SDS011;14851;51.166;4.760;2024-02-21T07:29:30;15.30;;;6.57;;
27383;SDS011;14851;51.166;4.760;2024-02-21T07:31:56;9.50;;;5.55;;
27383;SDS011;14851;51.166;4.760;2024-02-21T07:34:23;9.55;;;5.63;;
27383;SDS011;14851;51.166;4.760;2024-02-21T07:36:49;10.55;;;6.43;;
27383;SDS011;14851;51.166;4.760;2024-02-21T07:39:17;9.65;;;6.05;;
27383;SDS011;14851;51.166;4.760;2024-02-21T07:41:42;9.88;;;5.43;;
27383;SDS011;14851;51.166;4.760;2024-02-21T07:44:11;13.00;;;5.85;;
27383;SDS011;14851;51.166;4.760;2024-02-21T07:46:40;9.40;;;6.30;;
27383;SDS011;14851;51.166;4.760;2024-02-21T07:49:06;10.07;;;5.53;;
27383;SDS011;14851;51.166;4.760;2024-02-21T07:51:33;11.40;;;5.95;;
27383;SDS011;14851;51.166;4.760;2024-02-21T07:54:01;9.73;;;5.55;;
27383;SDS011;14851;51.166;4.760;2024-02-21T07:59:00;10.93;;;6.15;;
27383;SDS011;14851;51.166;4.760;2024-02-21T08:01:26;13.93;;;6.40;;
27383;SDS011;14851;51.166;4.760;2024-02-21T08:03:53;8.45;;;5.88;;
27383;SDS011;14851;51.166;4.760;2024-02-21T08:06:19;10.40;;;6.00;;
27383;SDS011;14851;51.166;4.760;2024-02-21T08:08:48;10.60;;;5.88;;
27383;SDS011;14851;51.166;4.760;2024-02-21T08:11:14;10.60;;;6.43;;
27383;SDS011;14851;51.166;4.760;2024-02-21T08:13:40;9.60;;;6.43;;
27383;SDS011;14851;51.166;4.760;2024-02-21T08:16:07;12.50;;;6.32;;
27383;SDS011;14851;51.166;4.760;2024-02-21T08:18:33;10.18;;;6.93;;
27383;SDS011;14851;51.166;4.760;2024-02-21T08:21:04;11.55;;;6.97;;
27383;SDS011;14851;51.166;4.760;2024-02-21T08:23:30;12.93;;;7.03;;
27383;SDS011;14851;51.166;4.760;2024-02-21T08:25:56;9.73;;;6.43;;
27383;SDS011;14851;51.166;4.760;2024-02-21T08:28:23;9.32;;;6.55;;
27383;SDS011;14851;51.166;4.760;2024-02-21T08:30:52;9.45;;;7.30;;
27383;SDS011;14851;51.166;4.760;2024-02-21T08:33:18;9.45;;;7.10;;
27383;SDS011;14851;51.166;4.760;2024-02-21T08:35:51;11.73;;;6.82;;
27383;SDS011;14851;51.166;4.760;2024-02-21T08:38:19;11.68;;;6.97;;
27383;SDS011;14851;51.166;4.760;2024-02-21T08:40:46;9.70;;;6.82;;
27383;SDS011;14851;51.166;4.760;2024-02-21T08:43:12;11.13;;;7.32;;
27383;SDS011;14851;51.166;4.760;2024-02-21T08:45:41;11.27;;;6.72;;
27383;SDS011;14851;51.166;4.760;2024-02-21T08:48:07;9.35;;;6.88;;
27383;SDS011;14851;51.166;4.760;2024-02-21T08:50:34;12.35;;;7.63;;
27383;SDS011;14851;51.166;4.760;2024-02-21T08:53:01;9.75;;;6.97;;
27383;SDS011;14851;51.166;4.760;2024-02-21T08:55:31;9.37;;;6.93;;
27383;SDS011;14851;51.166;4.760;2024-02-21T08:57:58;8.55;;;6.70;;
27383;SDS011;14851;51.166;4.760;2024-02-21T09:00:26;11.30;;;7.10;;
27383;SDS011;14851;51.166;4.760;2024-02-21T09:02:52;11.63;;;7.30;;
27383;SDS011;14851;51.166;4.760;2024-02-21T09:05:21;10.75;;;7.00;;
27383;SDS011;14851;51.166;4.760;2024-02-21T09:07:48;10.57;;;6.30;;
27383;SDS011;14851;51.166;4.760;2024-02-21T09:10:14;10.95;;;7.10;;
27383;SDS011;14851;51.166;4.760;2024-02-21T09:12:40;18.27;;;13.88;;
27383;SDS011;14851;51.166;4.760;2024-02-21T09:15:10;11.90;;;6.85;;
27383;SDS011;14851;51.166;4.760;2024-02-21T09:17:36;11.13;;;6.47;;
27383;SDS011;14851;51.166;4.760;2024-02-21T09:20:04;10.23;;;6.32;;
27383;SDS011;14851;51.166;4.760;2024-02-21T09:22:33;11.80;;;5.88;;
27383;SDS011;14851;51.166;4.760;2024-02-21T09:25:00;9.63;;;5.93;;
27383;SDS011;14851;51.166;4.760;2024-02-21T09:27:28;13.45;;;6.32;;
27383;SDS011;14851;51.166;4.760;2024-02-21T09:29:57;10.63;;;6.70;;
27383;SDS011;14851;51.166;4.760;2024-02-21T09:32:23;13.60;;;6.68;;
27383;SDS011;14851;51.166;4.760;2024-02-21T09:34:50;15.70;;;6.13;;
27383;SDS011;14851;51.166;4.760;2024-02-21T09:37:19;12.93;;;5.65;;
27383;SDS011;14851;51.166;4.760;2024-02-21T09:39:45;12.93;;;6.20;;
27383;SDS011;14851;51.166;4.760;2024-02-21T09:42:13;10.32;;;6.35;;
27383;SDS011;14851;51.166;4.760;2024-02-21T09:44:44;21.20;;;10.77;;
27383;SDS011;14851;51.166;4.760;2024-02-21T09:47:19;14.52;;;5.35;;
27383;SDS011;14851;51.166;4.760;2024-02-21T09:49:48;10.55;;;5.90;;
27383;SDS011;14851;51.166;4.760;2024-02-21T09:52:15;8.27;;;5.10;;
27383;SDS011;14851;51.166;4.760;2024-02-21T09:54:46;9.63;;;5.20;;
27383;SDS011;14851;51.166;4.760;2024-02-21T09:57:14;9.38;;;4.57;;
27383;SDS011;14851;51.166;4.760;2024-02-21T09:59:41;10.30;;;4.32;;
27383;SDS011;14851;51.166;4.760;2024-02-21T10:02:09;8.85;;;4.18;;
27383;SDS011;14851;51.166;4.760;2024-02-21T10:04:37;10.57;;;5.38;;
27383;SDS011;14851;51.166;4.760;2024-02-21T10:07:05;8.70;;;4.75;;
27383;SDS011;14851;51.166;4.760;2024-02-21T10:09:40;9.70;;;4.45;;
27383;SDS011;14851;51.166;4.760;2024-02-21T10:12:11;24.23;;;9.20;;
27383;SDS011;14851;51.166;4.760;2024-02-21T10:14:38;19.17;;;9.27;;
27383;SDS011;14851;51.166;4.760;2024-02-21T10:17:04;15.23;;;7.20;;
27383;SDS011;14851;51.166;4.760;2024-02-21T10:19:34;11.77;;;6.20;;
27383;SDS011;14851;51.166;4.760;2024-02-21T10:22:04;10.98;;;5.30;;
27383;SDS011;14851;51.166;4.760;2024-02-21T10:24:33;7.75;;;4.40;;
27383;SDS011;14851;51.166;4.760;2024-02-21T10:27:03;9.32;;;4.50;;
27383;SDS011;14851;51.166;4.760;2024-02-21T10:29:33;9.55;;;4.30;;
27383;SDS011;14851;51.166;4.760;2024-02-21T10:32:12;9.13;;;3.90;;
27383;SDS011;14851;51.166;4.760;2024-02-21T10:34:41;8.93;;;4.05;;
27383;SDS011;14851;51.166;4.760;2024-02-21T10:39:38;12.65;;;7.10;;
27383;SDS011;14851;51.166;4.760;2024-02-21T10:42:07;14.98;;;6.45;;
27383;SDS011;14851;51.166;4.760;2024-02-21T10:44:37;17.73;;;10.25;;
27383;SDS011;14851;51.166;4.760;2024-02-21T10:49:41;9.30;;;4.15;;
27383;SDS011;14851;51.166;4.760;2024-02-21T10:54:59;10.93;;;4.15;;
27383;SDS011;14851;51.166;4.760;2024-02-21T10:57:31;10.68;;;3.75;;
27383;SDS011;14851;51.166;4.760;2024-02-21T10:59:58;8.73;;;3.20;;
27383;SDS011;14851;51.166;4.760;2024-02-21T11:02:25;8.60;;;3.67;;
27383;SDS011;14851;51.166;4.760;2024-02-21T11:04:56;8.88;;;4.25;;
27383;SDS011;14851;51.166;4.760;2024-02-21T11:07:26;10.80;;;4.90;;
27383;SDS011;14851;51.166;4.760;2024-02-21T11:09:55;9.75;;;5.25;;
27383;SDS011;14851;51.166;4.760;2024-02-21T11:12:23;6.43;;;3.60;;
27383;SDS011;14851;51.166;4.760;2024-02-21T11:14:51;12.85;;;3.92;;
27383;SDS011;14851;51.166;4.760;2024-02-21T11:17:17;7.07;;;3.72;;
27383;SDS011;14851;51.166;4.760;2024-02-21T11:19:44;7.47;;;3.17;;
27383;SDS011;14851;51.166;4.760;2024-02-21T11:22:18;11.98;;;3.78;;
27383;SDS011;14851;51.166;4.760;2024-02-21T11:24:47;7.78;;;3.95;;
27383;SDS011;14851;51.166;4.760;2024-02-21T11:27:16;9.43;;;3.63;;
27383;SDS011;14851;51.166;4.760;2024-02-21T11:29:48;11.27;;;3.67;;
27383;SDS011;14851;51.166;4.760;2024-02-21T11:32:25;9.68;;;4.13;;
27383;SDS011;14851;51.166;4.760;2024-02-21T11:34:56;7.50;;;3.60;;
27383;SDS011;14851;51.166;4.760;2024-02-21T11:37:27;10.13;;;3.40;;
27383;SDS011;14851;51.166;4.760;2024-02-21T11:39:59;7.05;;;3.25;;
27383;SDS011;14851;51.166;4.760;2024-02-21T11:42:28;7.68;;;3.35;;
27383;SDS011;14851;51.166;4.760;2024-02-21T11:45:01;8.57;;;2.97;;
27383;SDS011;14851;51.166;4.760;2024-02-21T11:47:30;9.18;;;3.47;;
27383;SDS011;14851;51.166;4.760;2024-02-21T11:49:59;6.63;;;2.85;;
27383;SDS011;14851;51.166;4.760;2024-02-21T11:52:25;9.45;;;2.97;;
27383;SDS011;14851;51.166;4.760;2024-02-21T11:54:52;7.15;;;2.75;;
27383;SDS011;14851;51.166;4.760;2024-02-21T11:57:19;6.57;;;3.33;;
27383;SDS011;14851;51.166;4.760;2024-02-21T11:59:46;5.65;;;2.58;;
27383;SDS011;14851;51.166;4.760;2024-02-21T12:02:16;8.02;;;3.05;;
27383;SDS011;14851;51.166;4.760;2024-02-21T12:04:43;7.95;;;3.05;;
27383;SDS011;14851;51.166;4.760;2024-02-21T12:07:10;5.93;;;2.70;;
27383;SDS011;14851;51.166;4.760;2024-02-21T12:09:36;11.75;;;2.97;;
27383;SDS011;14851;51.166;4.760;2024-02-21T12:12:03;12.73;;;2.85;;
27383;SDS011;14851;51.166;4.760;2024-02-21T12:14:32;8.57;;;2.53;;
27383;SDS011;14851;51.166;4.760;2024-02-21T12:16:59;7.68;;;2.35;;
27383;SDS011;14851;51.166;4.760;2024-02-21T12:19:28;8.63;;;2.53;;
27383;SDS011;14851;51.166;4.760;2024-02-21T12:21:55;5.15;;;2.28;;
27383;SDS011;14851;51.166;4.760;2024-02-21T12:26:52;8.27;;;2.75;;
27383;SDS011;14851;51.166;4.760;2024-02-21T12:29:19;8.45;;;2.70;;
27383;SDS011;14851;51.166;4.760;2024-02-21T12:31:48;6.85;;;2.55;;
27383;SDS011;14851;51.166;4.760;2024-02-21T12:34:15;8.02;;;4.13;;
27383;SDS011;14851;51.166;4.760;2024-02-21T12:36:45;5.82;;;2.35;;
27383;SDS011;14851;51.166;4.760;2024-02-21T12:39:15;10.40;;;2.53;;
27383;SDS011;14851;51.166;4.760;2024-02-21T12:41:42;7.97;;;2.30;;
27383;SDS011;14851;51.166;4.760;2024-02-21T12:44:09;6.25;;;2.35;;
27383;SDS011;14851;51.166;4.760;2024-02-21T12:46:36;5.60;;;2.13;;
27383;SDS011;14851;51.166;4.760;2024-02-21T12:49:03;6.68;;;2.25;;
27383;SDS011;14851;51.166;4.760;2024-02-21T12:51:30;4.32;;;2.25;;
27383;SDS011;14851;51.166;4.760;2024-02-21T12:53:57;5.22;;;2.50;;
27383;SDS011;14851;51.166;4.760;2024-02-21T12:56:22;5.30;;;2.55;;
27383;SDS011;14851;51.166;4.760;2024-02-21T12:58:50;7.68;;;2.90;;
27383;SDS011;14851;51.166;4.760;2024-02-21T13:01:16;8.40;;;2.67;;
27383;SDS011;14851;51.166;4.760;2024-02-21T13:03:42;5.72;;;2.50;;
27383;SDS011;14851;51.166;4.760;2024-02-21T13:06:08;4.38;;;2.50;;
27383;SDS011;14851;51.166;4.760;2024-02-21T13:08:36;6.70;;;2.67;;
27383;SDS011;14851;51.166;4.760;2024-02-21T13:11:05;8.07;;;2.38;;
27383;SDS011;14851;51.166;4.760;2024-02-21T13:13:31;7.93;;;2.97;;
27383;SDS011;14851;51.166;4.760;2024-02-21T13:15:58;8.00;;;2.75;;
27383;SDS011;14851;51.166;4.760;2024-02-21T13:18:24;8.18;;;2.92;;
27383;SDS011;14851;51.166;4.760;2024-02-21T13:20:50;6.95;;;3.10;;
27383;SDS011;14851;51.166;4.760;2024-02-21T13:23:17;6.22;;;3.28;;
27383;SDS011;14851;51.166;4.760;2024-02-21T13:25:43;7.38;;;2.47;;
27383;SDS011;14851;51.166;4.760;2024-02-21T13:28:12;5.38;;;2.88;;
27383;SDS011;14851;51.166;4.760;2024-02-21T13:30:39;8.95;;;2.80;;
27383;SDS011;14851;51.166;4.760;2024-02-21T13:33:06;9.98;;;3.28;;
27383;SDS011;14851;51.166;4.760;2024-02-21T13:35:35;7.60;;;3.40;;
27383;SDS011;14851;51.166;4.760;2024-02-21T13:38:02;10.15;;;3.00;;
27383;SDS011;14851;51.166;4.760;2024-02-21T13:40:29;9.25;;;3.58;;
27383;SDS011;14851;51.166;4.760;2024-02-21T13:42:56;6.40;;;3.40;;
27383;SDS011;14851;51.166;4.760;2024-02-21T13:45:23;9.82;;;3.22;;
27383;SDS011;14851;51.166;4.760;2024-02-21T13:47:49;7.07;;;3.10;;
27383;SDS011;14851;51.166;4.760;2024-02-21T13:50:15;8.32;;;2.67;;
27383;SDS011;14851;51.166;4.760;2024-02-21T13:52:41;8.23;;;3.30;;
27383;SDS011;14851;51.166;4.760;2024-02-21T13:55:07;7.47;;;3.30;;
27383;SDS011;14851;51.166;4.760;2024-02-21T13:57:37;7.97;;;2.78;;
27383;SDS011;14851;51.166;4.760;2024-02-21T14:00:04;6.18;;;2.83;;
27383;SDS011;14851;51.166;4.760;2024-02-21T14:02:37;8.20;;;3.22;;
27383;SDS011;14851;51.166;4.760;2024-02-21T14:05:04;7.50;;;3.17;;
27383;SDS011;14851;51.166;4.760;2024-02-21T14:07:33;4.55;;;2.90;;
27383;SDS011;14851;51.166;4.760;2024-02-21T14:09:59;6.95;;;2.70;;
27383;SDS011;14851;51.166;4.760;2024-02-21T14:12:25;6.95;;;3.08;;
27383;SDS011;14851;51.166;4.760;2024-02-21T14:14:51;6.28;;;3.20;;
27383;SDS011;14851;51.166;4.760;2024-02-21T14:17:18;6.70;;;3.38;;
27383;SDS011;14851;51.166;4.760;2024-02-21T14:19:45;5.68;;;3.08;;
27383;SDS011;14851;51.166;4.760;2024-02-21T14:22:14;8.95;;;3.75;;
27383;SDS011;14851;51.166;4.760;2024-02-21T14:24:42;10.75;;;3.72;;
27383;SDS011;14851;51.166;4.760;2024-02-21T14:27:09;8.85;;;3.47;;
27383;SDS011;14851;51.166;4.760;2024-02-21T14:29:37;6.90;;;3.60;;
27383;SDS011;14851;51.166;4.760;2024-02-21T14:32:04;8.45;;;3.45;;
27383;SDS011;14851;51.166;4.760;2024-02-21T14:34:31;6.50;;;3.50;;
27383;SDS011;14851;51.166;4.760;2024-02-21T14:37:02;6.82;;;3.35;;
27383;SDS011;14851;51.166;4.760;2024-02-21T14:39:31;10.07;;;4.32;;
27383;SDS011;14851;51.166;4.760;2024-02-21T14:41:59;7.85;;;3.47;;
27383;SDS011;14851;51.166;4.760;2024-02-21T14:44:26;8.25;;;4.10;;
27383;SDS011;14851;51.166;4.760;2024-02-21T14:46:52;7.47;;;3.17;;
27383;SDS011;14851;51.166;4.760;2024-02-21T14:49:19;9.50;;;3.72;;
27383;SDS011;14851;51.166;4.760;2024-02-21T14:51:45;6.78;;;3.15;;
27383;SDS011;14851;51.166;4.760;2024-02-21T14:54:11;9.32;;;4.10;;
27383;SDS011;14851;51.166;4.760;2024-02-21T14:56:37;8.48;;;4.18;;
27383;SDS011;14851;51.166;4.760;2024-02-21T14:59:12;7.35;;;4.13;;